createdAt,value
2022-08-17T00:02:26.923Z,5.00
2022-08-17T00:04:50.704Z,5.07
2022-08-17T00:07:13.270Z,5.20
2022-08-17T00:09:36.105Z,5.20
2022-08-17T00:12:43.395Z,5.18
2022-08-17T00:14:41.522Z,5.30
2022-08-17T00:17:04.803Z,5.35
2022-08-17T00:19:28.185Z,5.20
2022-08-17T00:22:30.781Z,5.00
2022-08-17T00:24:36.592Z,5.20
2022-08-17T00:26:59.465Z,5.13
2022-08-17T00:29:22.278Z,5.35
2022-08-17T00:31:44.849Z,5.15
2022-08-17T00:34:08.980Z,5.47
2022-08-17T00:36:31.693Z,5.43
2022-08-17T00:38:54.576Z,5.32
2022-08-17T00:41:21.279Z,5.35
2022-08-17T00:43:50.052Z,5.88
2022-08-17T00:46:22.969Z,5.80
2022-08-17T00:48:45.884Z,5.80
2022-08-17T00:51:11.856Z,6.40
2022-08-17T00:53:37.891Z,6.50
2022-08-17T00:56:03.676Z,6.55
2022-08-17T00:58:33.000Z,6.13
2022-08-17T01:01:02.161Z,6.30
2022-08-17T01:03:26.665Z,6.20
2022-08-17T01:05:51.620Z,5.82
2022-08-17T01:08:17.936Z,6.80
2022-08-17T01:10:58.624Z,6.90
2022-08-17T01:13:27.771Z,6.45
2022-08-17T01:15:58.549Z,6.25
2022-08-17T01:18:21.473Z,6.32
2022-08-17T01:20:52.412Z,6.20
2022-08-17T01:23:16.473Z,5.97
2022-08-17T01:25:43.388Z,6.00
2022-08-17T01:28:11.403Z,6.07
2022-08-17T01:30:59.004Z,5.78
2022-08-17T01:33:22.295Z,6.10
2022-08-17T01:35:45.021Z,5.63
2022-08-17T01:38:09.583Z,5.75
2022-08-17T01:40:43.241Z,5.95
2022-08-17T01:43:14.006Z,5.60
2022-08-17T01:45:49.063Z,5.88
2022-08-17T01:48:36.604Z,5.80
2022-08-17T01:50:59.337Z,5.65
2022-08-17T01:53:26.916Z,5.80
2022-08-17T01:55:53.713Z,5.90
2022-08-17T01:58:17.050Z,5.50
2022-08-17T02:00:59.340Z,5.70
2022-08-17T02:03:24.248Z,5.93
2022-08-17T02:05:48.513Z,5.85
2022-08-17T02:08:20.001Z,6.22
2022-08-17T02:10:46.838Z,5.57
2022-08-17T02:13:09.616Z,6.00
2022-08-17T02:15:33.551Z,6.22
2022-08-17T02:17:56.185Z,5.88
2022-08-17T02:20:41.513Z,7.80
2022-08-17T02:23:02.818Z,6.63
2022-08-17T02:25:31.647Z,6.50
2022-08-17T02:27:54.248Z,6.93
2022-08-17T02:31:01.727Z,6.63
2022-08-17T02:33:04.138Z,7.00
2022-08-17T02:35:29.359Z,7.03
2022-08-17T02:37:55.359Z,7.00
2022-08-17T02:40:19.187Z,6.75
2022-08-17T02:42:59.230Z,7.15
2022-08-17T02:45:24.522Z,6.95
2022-08-17T02:47:52.284Z,6.95
2022-08-17T02:50:17.883Z,6.93
2022-08-17T02:52:42.893Z,7.20
2022-08-17T02:55:28.757Z,7.20
2022-08-17T02:57:52.591Z,7.30
2022-08-17T03:00:22.559Z,7.97
2022-08-17T03:02:46.249Z,7.70
2022-08-17T03:05:11.520Z,7.82
2022-08-17T03:07:34.629Z,7.90
2022-08-17T03:09:58.032Z,7.22
2022-08-17T03:12:21.078Z,7.60
2022-08-17T03:14:43.794Z,8.40
2022-08-17T03:17:06.498Z,7.32
2022-08-17T03:19:29.020Z,8.18
2022-08-17T03:21:54.969Z,7.97
2022-08-17T03:24:18.115Z,7.32
2022-08-17T03:26:40.856Z,7.57
2022-08-17T03:29:03.424Z,7.57
2022-08-17T03:31:26.340Z,7.32
2022-08-17T03:33:48.879Z,7.53
2022-08-17T03:36:11.976Z,7.82
2022-08-17T03:38:38.974Z,7.63
2022-08-17T03:41:03.295Z,7.47
2022-08-17T03:43:27.582Z,8.00
2022-08-17T03:46:10.948Z,8.50
2022-08-17T03:49:10.951Z,8.10
2022-08-17T03:51:52.397Z,7.87
2022-08-17T03:54:33.827Z,7.85
2022-08-17T03:57:08.425Z,8.07
2022-08-17T03:59:32.105Z,7.72
2022-08-17T04:01:56.611Z,7.90
2022-08-17T04:04:19.999Z,7.83
2022-08-17T04:06:50.927Z,7.93
2022-08-17T04:09:13.809Z,8.20
2022-08-17T04:11:37.327Z,7.70
2022-08-17T04:13:59.848Z,7.50
2022-08-17T04:16:24.499Z,6.93
2022-08-17T04:18:48.055Z,7.40
2022-08-17T04:21:10.749Z,7.03
2022-08-17T04:23:36.533Z,7.85
2022-08-17T04:25:59.351Z,7.85
2022-08-17T04:28:21.898Z,7.70
2022-08-17T04:30:46.822Z,7.35
2022-08-17T04:33:14.155Z,7.90
2022-08-17T04:35:42.448Z,7.95
2022-08-17T04:38:06.572Z,7.85
2022-08-17T04:40:48.259Z,7.17
2022-08-17T04:43:18.592Z,7.65
2022-08-17T04:45:51.316Z,7.63
2022-08-17T04:48:18.688Z,7.57
2022-08-17T04:50:46.684Z,7.90
2022-08-17T04:53:09.319Z,8.50
2022-08-17T04:55:31.876Z,8.02
2022-08-17T04:57:54.840Z,8.40
2022-08-17T05:00:18.779Z,8.13
2022-08-17T05:02:49.910Z,8.05
2022-08-17T05:05:21.689Z,7.10
2022-08-17T05:07:44.444Z,7.70
2022-08-17T05:10:07.464Z,8.20
2022-08-17T05:12:30.404Z,9.52
2022-08-17T05:14:53.160Z,7.30
2022-08-17T05:17:15.744Z,6.73
2022-08-17T05:19:38.790Z,7.70
2022-08-17T05:22:07.534Z,7.13
2022-08-17T05:24:40.715Z,7.40
2022-08-17T05:27:06.888Z,7.30
2022-08-17T05:29:34.464Z,7.30
2022-08-17T05:31:58.357Z,7.55
2022-08-17T05:34:21.323Z,8.52
2022-08-17T05:36:44.637Z,7.57
2022-08-17T05:39:07.382Z,8.20
2022-08-17T05:41:29.923Z,7.37
2022-08-17T05:43:56.212Z,7.30
2022-08-17T05:46:22.342Z,7.22
2022-08-17T05:48:49.568Z,7.40
2022-08-17T05:51:37.444Z,7.13
2022-08-17T05:54:02.835Z,6.67
2022-08-17T05:56:41.658Z,6.68
2022-08-17T05:59:39.653Z,6.80
2022-08-17T06:02:23.347Z,6.65
2022-08-17T06:04:59.754Z,7.10
2022-08-17T06:07:29.017Z,6.47
2022-08-17T06:10:08.525Z,6.60
2022-08-17T06:12:36.027Z,7.00
2022-08-17T06:15:23.806Z,7.10
2022-08-17T06:17:46.711Z,7.25
2022-08-17T06:20:14.276Z,6.80
2022-08-17T06:22:49.666Z,6.43
2022-08-17T06:25:41.356Z,6.20
2022-08-17T06:28:09.020Z,6.07
2022-08-17T06:30:59.175Z,7.45
2022-08-17T06:33:32.384Z,7.00
2022-08-17T06:36:19.611Z,6.72
2022-08-17T06:39:11.298Z,6.97
2022-08-17T06:41:44.688Z,6.50
2022-08-17T06:44:10.044Z,7.10
2022-08-17T06:46:40.633Z,7.00
2022-08-17T06:49:15.973Z,6.57
2022-08-17T06:51:48.743Z,6.68
2022-08-17T06:54:21.228Z,6.72
2022-08-17T06:56:55.056Z,6.70
2022-08-17T06:59:23.365Z,6.33
2022-08-17T07:01:52.235Z,7.03
2022-08-17T07:04:26.380Z,7.20
2022-08-17T07:07:26.106Z,6.30
2022-08-17T07:09:52.964Z,6.50
2022-08-17T07:12:20.012Z,6.73
2022-08-17T07:14:53.757Z,7.32
2022-08-17T07:17:18.692Z,6.72
2022-08-17T07:19:45.867Z,7.00
2022-08-17T07:22:14.412Z,6.93
2022-08-17T07:24:59.594Z,7.03
2022-08-17T07:27:43.178Z,7.40
2022-08-17T07:30:31.620Z,6.70
2022-08-17T07:33:14.491Z,7.18
2022-08-17T07:35:43.899Z,7.47
2022-08-17T07:38:26.971Z,6.90
2022-08-17T07:41:06.105Z,7.07
2022-08-17T07:43:36.764Z,7.00
2022-08-17T07:46:24.149Z,7.68
2022-08-17T07:48:50.018Z,6.78
2022-08-17T07:51:18.603Z,7.27
2022-08-17T07:53:41.796Z,7.10
2022-08-17T07:56:05.101Z,6.90
2022-08-17T07:58:28.011Z,7.20
2022-08-17T08:01:10.062Z,7.05
2022-08-17T08:03:34.134Z,7.00
2022-08-17T08:06:02.288Z,6.88
2022-08-17T08:08:37.498Z,6.85
2022-08-17T08:11:12.582Z,12.70
2022-08-17T08:13:42.533Z,8.05
2022-08-17T08:16:17.096Z,7.23
2022-08-17T08:18:55.663Z,6.80
2022-08-17T08:21:28.398Z,7.25
2022-08-17T08:23:53.687Z,7.20
2022-08-17T08:26:45.116Z,6.75
2022-08-17T08:29:29.401Z,6.90
2022-08-17T08:32:20.565Z,6.90
2022-08-17T08:35:03.566Z,7.20
2022-08-17T08:37:50.976Z,7.85
2022-08-17T08:40:40.725Z,6.88
2022-08-17T08:43:06.132Z,7.00
2022-08-17T08:45:35.940Z,6.93
2022-08-17T08:48:23.055Z,5.97
2022-08-17T08:51:07.285Z,6.35
2022-08-17T08:53:45.260Z,5.57
2022-08-17T08:56:34.313Z,5.63
2022-08-17T08:59:24.866Z,5.80
2022-08-17T09:01:53.853Z,6.00
2022-08-17T09:05:02.815Z,6.20
2022-08-17T09:07:27.966Z,6.15
2022-08-17T09:10:27.276Z,5.53
2022-08-17T09:12:58.972Z,5.63
2022-08-17T09:15:27.756Z,5.65
2022-08-17T09:19:01.332Z,5.85
2022-08-17T09:20:50.041Z,5.78
2022-08-17T09:23:42.624Z,5.90
2022-08-17T09:26:14.344Z,6.07
2022-08-17T09:28:40.686Z,5.78
2022-08-17T09:31:11.187Z,5.60
2022-08-17T09:33:40.519Z,6.10
2022-08-17T09:36:10.228Z,5.67
2022-08-17T09:39:02.273Z,5.55
2022-08-17T09:41:33.522Z,6.00
2022-08-17T09:44:23.656Z,5.68
2022-08-17T09:47:12.510Z,5.65
2022-08-17T09:49:50.964Z,5.10
2022-08-17T09:52:33.916Z,5.78
2022-08-17T09:54:59.371Z,6.00
2022-08-17T09:57:32.662Z,5.70
2022-08-17T10:00:11.995Z,5.82
2022-08-17T10:03:02.658Z,5.40
2022-08-17T10:05:49.276Z,4.97
2022-08-17T10:08:27.715Z,5.25
2022-08-17T10:11:08.951Z,5.43
2022-08-17T10:13:56.290Z,5.05
2022-08-17T10:16:49.061Z,5.33
2022-08-17T10:19:38.740Z,5.60
2022-08-17T10:22:53.199Z,5.63
2022-08-17T10:25:54.288Z,5.40
2022-08-17T10:28:28.894Z,5.10
2022-08-17T10:31:16.623Z,5.10
2022-08-17T10:33:48.975Z,5.00
2022-08-17T10:36:47.550Z,4.68
2022-08-17T10:39:52.610Z,4.68
2022-08-17T10:42:30.287Z,5.45
2022-08-17T10:45:03.154Z,5.23
2022-08-17T10:48:04.776Z,5.03
2022-08-17T10:50:55.512Z,4.70
2022-08-17T10:53:33.214Z,5.20
2022-08-17T10:56:14.152Z,5.25
2022-08-17T10:58:59.702Z,5.23
2022-08-17T11:01:34.358Z,4.47
2022-08-17T11:04:01.251Z,4.95
2022-08-17T11:06:38.804Z,4.95
2022-08-17T11:09:23.740Z,4.25
2022-08-17T11:12:13.006Z,5.37
2022-08-17T11:15:07.327Z,4.70
2022-08-17T11:17:49.709Z,5.00
2022-08-17T11:20:37.585Z,4.60
2022-08-17T11:23:19.687Z,4.68
2022-08-17T11:25:50.850Z,4.60
2022-08-17T11:28:22.267Z,4.72
2022-08-17T11:30:59.051Z,5.45
2022-08-17T11:33:36.890Z,5.10
2022-08-17T11:36:10.115Z,4.70
2022-08-17T11:38:47.348Z,4.70
2022-08-17T11:41:44.560Z,4.57
2022-08-17T11:44:20.840Z,5.18
2022-08-17T11:47:26.629Z,4.60
2022-08-17T11:50:36.261Z,4.65
2022-08-17T11:52:59.021Z,4.33
2022-08-17T11:55:37.533Z,4.35
2022-08-17T11:58:31.974Z,4.07
2022-08-17T12:00:59.217Z,4.95
2022-08-17T12:03:36.887Z,4.57
2022-08-17T12:06:15.837Z,4.70
2022-08-17T12:08:43.406Z,4.45
2022-08-17T12:11:12.504Z,4.60
2022-08-17T12:13:43.495Z,4.40
2022-08-17T12:16:07.359Z,5.10
2022-08-17T12:18:35.746Z,4.57
2022-08-17T12:21:19.522Z,4.55
2022-08-17T12:23:48.405Z,4.60
2022-08-17T12:26:23.220Z,4.40
2022-08-17T12:28:49.040Z,4.53
2022-08-17T12:31:21.908Z,3.97
2022-08-17T12:33:46.728Z,4.65
2022-08-17T12:36:15.168Z,4.78
2022-08-17T12:38:38.308Z,4.20
2022-08-17T12:41:22.017Z,4.53
2022-08-17T12:43:55.781Z,3.90
2022-08-17T12:46:18.412Z,3.88
2022-08-17T12:48:59.867Z,4.22
2022-08-17T12:51:22.834Z,3.72
2022-08-17T12:53:54.026Z,4.32
2022-08-17T12:56:17.638Z,4.20
2022-08-17T12:58:49.004Z,4.22
2022-08-17T13:01:16.516Z,4.63
2022-08-17T13:03:43.405Z,3.80
2022-08-17T13:06:09.670Z,4.32
2022-08-17T13:08:38.338Z,4.07
2022-08-17T13:11:19.640Z,4.25
2022-08-17T13:13:50.867Z,3.90
2022-08-17T13:16:14.516Z,3.90
2022-08-17T13:18:40.013Z,3.75
2022-08-17T13:21:03.104Z,3.87
2022-08-17T13:23:29.222Z,3.80
2022-08-17T13:26:16.073Z,3.78
2022-08-17T13:28:38.850Z,3.95
2022-08-17T13:31:33.028Z,3.95
2022-08-17T13:34:29.411Z,3.90
2022-08-17T13:37:13.996Z,4.00
2022-08-17T13:39:44.816Z,4.10
2022-08-17T13:42:31.811Z,3.60
2022-08-17T13:44:54.506Z,3.70
2022-08-17T13:47:19.979Z,3.90
2022-08-17T13:49:48.659Z,3.85
2022-08-17T13:52:31.689Z,4.15
2022-08-17T13:54:56.206Z,4.30
2022-08-17T13:57:24.300Z,4.43
2022-08-17T13:59:54.908Z,4.07
2022-08-17T14:02:20.535Z,4.25
2022-08-17T14:04:45.535Z,4.35
2022-08-17T14:07:12.829Z,4.20
2022-08-17T14:09:49.812Z,4.20
2022-08-17T14:12:16.144Z,3.70
2022-08-17T14:14:39.703Z,4.28
2022-08-17T14:17:02.263Z,3.80
2022-08-17T14:19:25.971Z,3.90
2022-08-17T14:21:48.849Z,4.38
2022-08-17T14:24:21.201Z,4.20
2022-08-17T14:26:44.944Z,4.20
2022-08-17T14:29:15.069Z,4.45
2022-08-17T14:31:39.130Z,4.40
2022-08-17T14:34:01.860Z,3.97
2022-08-17T14:36:24.489Z,4.23
2022-08-17T14:38:47.312Z,4.20
2022-08-17T14:41:09.943Z,4.05
2022-08-17T14:43:34.653Z,3.80
2022-08-17T14:45:58.504Z,4.10
2022-08-17T14:48:21.862Z,3.80
2022-08-17T14:50:46.129Z,4.00
2022-08-17T14:53:10.367Z,4.00
2022-08-17T14:55:33.599Z,4.10
2022-08-17T14:57:56.250Z,4.40
2022-08-17T15:00:20.042Z,4.20
2022-08-17T15:02:46.151Z,4.60
2022-08-17T15:05:09.032Z,4.15
2022-08-17T15:07:31.977Z,3.70
2022-08-17T15:09:57.629Z,3.92
2022-08-17T15:12:23.088Z,4.07
2022-08-17T15:14:45.598Z,3.80
2022-08-17T15:17:08.155Z,4.13
2022-08-17T15:19:31.505Z,4.13
2022-08-17T15:21:54.186Z,4.05
2022-08-17T15:24:17.233Z,4.40
2022-08-17T15:26:40.472Z,4.00
2022-08-17T15:29:03.249Z,4.20
2022-08-17T15:31:31.960Z,3.97
2022-08-17T15:33:55.722Z,4.10
2022-08-17T15:36:19.199Z,3.90
2022-08-17T15:38:41.950Z,4.30
2022-08-17T15:41:09.888Z,4.07
2022-08-17T15:43:32.883Z,3.65
2022-08-17T15:46:00.635Z,4.18
2022-08-17T15:48:23.442Z,3.90
2022-08-17T15:50:47.340Z,3.58
2022-08-17T15:53:09.912Z,4.28
2022-08-17T15:55:33.721Z,4.13
2022-08-17T15:57:56.641Z,4.07
2022-08-17T16:00:20.032Z,3.47
2022-08-17T16:03:46.814Z,3.80
2022-08-17T16:05:46.371Z,3.92
2022-08-17T16:08:11.030Z,3.38
2022-08-17T16:10:34.794Z,3.92
2022-08-17T16:12:58.803Z,3.73
2022-08-17T16:15:21.536Z,4.40
2022-08-17T16:17:44.156Z,3.88
2022-08-17T16:20:19.686Z,4.05
2022-08-17T16:22:46.123Z,3.92
2022-08-17T16:25:12.750Z,3.67
2022-08-17T16:27:35.599Z,3.78
2022-08-17T16:29:58.398Z,4.22
2022-08-17T16:32:31.997Z,4.32
2022-08-17T16:34:56.125Z,3.60
2022-08-17T16:37:18.791Z,4.00
2022-08-17T16:39:43.234Z,4.00
2022-08-17T16:42:24.529Z,4.13
2022-08-17T16:44:47.305Z,4.45
2022-08-17T16:47:10.637Z,4.15
2022-08-17T16:49:37.426Z,3.97
2022-08-17T16:52:01.691Z,4.25
2022-08-17T16:54:24.929Z,4.15
2022-08-17T16:56:47.433Z,4.00
2022-08-17T16:59:30.083Z,4.55
2022-08-17T17:01:54.506Z,4.10
2022-08-17T17:04:19.276Z,4.05
2022-08-17T17:06:54.428Z,4.15
2022-08-17T17:09:21.665Z,4.00
2022-08-17T17:11:52.631Z,4.13
2022-08-17T17:14:31.847Z,4.00
2022-08-17T17:17:07.438Z,3.92
2022-08-17T17:19:34.930Z,4.10
2022-08-17T17:22:25.935Z,4.30
2022-08-17T17:25:10.459Z,4.20
2022-08-17T17:27:39.469Z,4.17
2022-08-17T17:30:10.175Z,3.90
2022-08-17T17:32:49.453Z,4.07
2022-08-17T17:35:21.742Z,4.35
2022-08-17T17:37:46.863Z,4.10
2022-08-17T17:40:19.134Z,4.03
2022-08-17T17:42:43.867Z,3.90
2022-08-17T17:45:13.489Z,3.70
2022-08-17T17:47:37.177Z,4.03
2022-08-17T17:50:03.327Z,4.20
2022-08-17T17:52:45.532Z,3.53
2022-08-17T17:55:41.926Z,3.60
2022-08-17T17:58:44.734Z,3.83
2022-08-17T18:01:25.928Z,4.03
2022-08-17T18:04:20.378Z,3.95
2022-08-17T18:07:09.925Z,3.70
2022-08-17T18:10:19.805Z,3.80
2022-08-17T18:13:03.652Z,4.28
2022-08-17T18:15:35.616Z,3.80
2022-08-17T18:18:22.814Z,4.20
2022-08-17T18:20:56.057Z,4.47
2022-08-17T18:23:23.077Z,4.15
2022-08-17T18:25:53.690Z,4.00
2022-08-17T18:28:31.134Z,4.13
2022-08-17T18:31:09.370Z,4.53
2022-08-17T18:33:34.231Z,4.73
2022-08-17T18:35:58.888Z,5.65
2022-08-17T18:38:35.784Z,5.65
2022-08-17T18:41:20.192Z,5.00
2022-08-17T18:43:53.119Z,5.05
2022-08-17T18:46:28.062Z,5.40
2022-08-17T18:48:59.046Z,5.35
2022-08-17T18:51:40.451Z,5.30
2022-08-17T18:54:14.645Z,5.20
2022-08-17T18:56:41.371Z,5.25
2022-08-17T18:59:22.048Z,4.70
2022-08-17T19:02:01.894Z,4.25
2022-08-17T19:04:28.429Z,4.00
2022-08-17T19:07:09.568Z,4.07
2022-08-17T19:09:38.401Z,4.35
2022-08-17T19:12:06.139Z,4.47
2022-08-17T19:14:29.081Z,4.00
2022-08-17T19:16:55.779Z,4.20
2022-08-17T19:19:38.182Z,4.75
2022-08-17T19:22:28.798Z,4.40
2022-08-17T19:24:56.311Z,4.70
2022-08-17T19:27:43.681Z,4.90
2022-08-17T19:30:14.580Z,4.30
2022-08-17T19:32:38.019Z,4.90
2022-08-17T19:35:02.140Z,4.47
2022-08-17T19:37:32.202Z,4.50
2022-08-17T19:43:31.897Z,4.03
2022-08-17T19:46:07.829Z,4.70
2022-08-17T19:49:03.347Z,4.72
2022-08-17T19:51:45.678Z,4.50
2022-08-17T19:54:20.329Z,4.90
2022-08-17T19:57:12.308Z,4.75
2022-08-17T19:59:48.849Z,4.82
2022-08-17T20:02:14.399Z,4.45
2022-08-17T20:04:42.962Z,4.43
2022-08-17T20:07:23.573Z,4.57
2022-08-17T20:09:54.102Z,4.75
2022-08-17T20:12:31.233Z,4.57
2022-08-17T20:15:00.122Z,4.82
2022-08-17T20:17:28.215Z,4.60
2022-08-17T20:20:03.511Z,4.60
2022-08-17T20:22:31.079Z,4.50
2022-08-17T20:24:59.456Z,5.00
2022-08-17T20:27:31.625Z,5.18
2022-08-17T20:30:29.667Z,5.00
2022-08-17T20:32:55.916Z,4.82
2022-08-17T20:35:20.907Z,4.80
2022-08-17T20:37:55.412Z,4.75
2022-08-17T20:40:30.800Z,5.00
2022-08-17T20:42:53.857Z,4.90
2022-08-17T20:45:23.418Z,5.43
2022-08-17T20:48:18.748Z,5.13
2022-08-17T20:50:38.769Z,4.90
2022-08-17T20:53:08.994Z,5.20
2022-08-17T20:55:34.345Z,5.50
2022-08-17T20:57:56.927Z,5.85
2022-08-17T21:00:39.787Z,7.43
2022-08-17T21:03:23.277Z,7.25
2022-08-17T21:06:17.343Z,7.70
2022-08-17T21:08:53.392Z,6.60
2022-08-17T21:12:03.121Z,6.00
2022-08-17T21:14:33.162Z,5.15
2022-08-17T21:17:15.001Z,4.68
2022-08-17T21:20:12.178Z,4.97
2022-08-17T21:23:05.940Z,4.83
2022-08-17T21:25:46.446Z,4.80
2022-08-17T21:28:34.156Z,5.35
2022-08-17T21:31:01.089Z,5.25
2022-08-17T21:33:27.175Z,5.03
2022-08-17T21:36:04.654Z,5.37
2022-08-17T21:38:47.170Z,5.63
2022-08-17T21:41:21.064Z,5.40
2022-08-17T21:43:49.038Z,5.35
2022-08-17T21:46:28.608Z,5.47
2022-08-17T21:48:54.255Z,4.90
2022-08-17T21:51:23.340Z,5.00
2022-08-17T21:53:58.789Z,5.28
2022-08-17T21:56:26.080Z,5.15
2022-08-17T21:58:55.892Z,5.30
2022-08-17T22:01:22.321Z,4.67
2022-08-17T22:03:54.015Z,6.93
2022-08-17T22:06:30.090Z,5.80
2022-08-17T22:09:14.548Z,6.05
2022-08-17T22:11:59.793Z,6.18
2022-08-17T22:15:00.393Z,5.60
2022-08-17T22:17:45.110Z,5.10
2022-08-17T22:20:29.620Z,5.18
2022-08-17T22:23:13.681Z,5.43
2022-08-17T22:25:56.258Z,6.88
2022-08-17T22:28:56.581Z,5.40
2022-08-17T22:31:21.046Z,6.15
2022-08-17T22:33:43.567Z,5.50
2022-08-17T22:36:09.053Z,5.13
2022-08-17T22:38:33.212Z,4.80
2022-08-17T22:41:34.757Z,4.97
2022-08-17T22:44:02.465Z,4.50
2022-08-17T22:46:26.179Z,4.90
2022-08-17T22:48:53.582Z,4.60
2022-08-17T22:51:23.687Z,4.68
2022-08-17T22:54:31.731Z,4.77
2022-08-17T22:57:20.826Z,4.43
2022-08-17T22:59:50.121Z,4.63
2022-08-17T23:02:15.484Z,4.50
2022-08-17T23:04:40.468Z,4.78
2022-08-17T23:07:03.146Z,4.73
2022-08-17T23:09:27.172Z,4.68
2022-08-17T23:11:53.098Z,4.78
2022-08-17T23:14:16.636Z,4.60
2022-08-17T23:16:45.224Z,4.65
2022-08-17T23:19:08.494Z,5.33
2022-08-17T23:21:31.105Z,4.88
2022-08-17T23:23:59.799Z,5.10
2022-08-17T23:26:23.295Z,5.05
2022-08-17T23:28:46.156Z,5.00
2022-08-17T23:31:09.401Z,4.97
2022-08-17T23:33:34.490Z,4.65
2022-08-17T23:36:00.085Z,4.90
2022-08-17T23:38:25.008Z,4.97
2022-08-17T23:40:47.545Z,4.97
2022-08-17T23:43:23.787Z,5.10
2022-08-17T23:45:48.533Z,5.60
2022-08-17T23:48:13.733Z,5.53
2022-08-17T23:50:52.971Z,5.35
2022-08-17T23:53:15.858Z,5.20
2022-08-17T23:55:38.530Z,5.20
2022-08-17T23:58:05.508Z,5.25
